Time;durP1;ratioP1;P1;durP2;ratioP2;P2;SDS_P1;SDS_P2;PMS_P1;PMS_P2;Temp;Humidity;BMP_temperature;BMP_pressure;BME280_temperature;BME280_humidity;BME280_pressure;Samples;Min_cycle;Max_cycle;Signal;HPM_P1;HPM_P2
2022/09/20 00:00:40;;;;;;;;;;;12.10;99.90;;;;;;4178613;28;19935;-58
2022/09/20 00:03:01;;;;;;;;;;;12.10;99.90;;;;;;4178704;28;19951;-57
2022/09/20 00:05:21;;;;;;;;;;;12.10;99.90;;;;;;4178591;28;19935;-57
2022/09/20 00:07:45;;;;;;;;;;;12.00;99.90;;;;;;4178517;28;19951;-57
2022/09/20 00:10:05;;;;;;;;;;;11.70;99.90;;;;;;4178594;28;20003;-57
2022/09/20 00:12:26;;;;;;;;;;;11.60;99.90;;;;;;4178998;28;19984;-57
2022/09/20 00:14:46;;;;;;;;;;;11.50;99.90;;;;;;4178858;28;20399;-57
2022/09/20 00:17:08;;;;;;;;;;;11.50;99.90;;;;;;4178749;28;19935;-56
2022/09/20 00:19:28;;;;;;;;;;;11.60;99.90;;;;;;4178479;28;19931;-57
2022/09/20 00:21:48;;;;;;;;;;;11.60;99.90;;;;;;4178856;28;19931;-57
2022/09/20 00:24:09;;;;;;;;;;;11.50;99.90;;;;;;4181707;28;19974;-56
2022/09/20 00:26:29;;;;;;;;;;;11.50;99.90;;;;;;4181697;28;20023;-57
2022/09/20 00:28:50;;;;;;;;;;;11.50;99.90;;;;;;4182010;28;20002;-57
2022/09/20 00:31:11;;;;;;;;;;;11.50;99.90;;;;;;4181576;28;19979;-57
2022/09/20 00:36:11;;;;;;;;;;;11.40;99.90;;;;;;4181109;28;19932;-57
2022/09/20 00:38:31;;;;;;;;;;;11.40;99.90;;;;;;4181174;28;20020;-57
2022/09/20 00:40:51;;;;;;;;;;;11.50;99.90;;;;;;4181830;28;19999;-57
2022/09/20 00:43:13;;;;;;;;;;;11.40;99.90;;;;;;4181300;28;19932;-58
2022/09/20 00:45:34;;;;;;;;;;;11.50;99.90;;;;;;4181447;28;20395;-57
2022/09/20 00:48:13;;;;;;;;;;;11.40;99.90;;;;;;4181077;28;19951;-57
2022/09/20 00:50:37;;;;;;;;;;;11.20;99.90;;;;;;4181743;28;20040;-57
2022/09/20 00:53:00;;;;;;;;;;;11.10;99.90;;;;;;4181684;28;20288;-57
2022/09/20 00:55:20;;;;;;;;;;;11.00;99.90;;;;;;4181679;28;19931;-57
2022/09/20 00:57:41;;;;;;;;;;;11.00;99.90;;;;;;4181059;28;19931;-56
2022/09/20 01:00:09;;;;;;;;;;;11.00;99.90;;;;;;4197401;28;19932;-57
2022/09/20 01:02:30;;;;;;;;;;;10.90;99.90;;;;;;4198015;28;19975;-57
2022/09/20 01:04:51;;;;;;;;;;;10.80;99.90;;;;;;4197878;28;19931;-57
2022/09/20 01:07:14;;;;;;;;;;;10.90;99.90;;;;;;4197499;28;19950;-56
2022/09/20 01:09:34;;;;;;;;;;;11.10;99.90;;;;;;4197974;28;19935;-57
2022/09/20 01:11:56;;;;;;;;;;;11.00;99.90;;;;;;4197894;28;19947;-57
2022/09/20 01:14:21;;;;;;;;;;;11.00;99.90;;;;;;4197799;28;20291;-56
2022/09/20 01:16:41;;;;;;;;;;;10.90;99.90;;;;;;4197655;28;20475;-56
2022/09/20 01:19:07;;;;;;;;;;;10.80;99.90;;;;;;4182554;28;19935;-56
2022/09/20 01:21:28;;;;;;;;;;;10.60;99.90;;;;;;4197584;28;19935;-60
2022/09/20 01:24:06;;;;;;;;;;;10.60;99.90;;;;;;4197666;28;19934;-60
2022/09/20 01:26:36;;;;;;;;;;;10.50;99.90;;;;;;4197622;28;20021;-59
2022/09/20 01:29:20;;;;;;;;;;;10.50;99.90;;;;;;4197391;28;19931;-60
2022/09/20 01:31:45;;;;;;;;;;;10.50;99.90;;;;;;4197389;28;20348;-60
2022/09/20 01:34:08;;;;;;;;;;;10.50;99.90;;;;;;4197073;28;19951;-60
2022/09/20 01:36:43;;;;;;;;;;;10.60;99.90;;;;;;4197030;28;19981;-59
2022/09/20 01:39:23;;;;;;;;;;;10.60;99.90;;;;;;4196958;28;20398;-59
2022/09/20 01:41:46;;;;;;;;;;;10.40;99.90;;;;;;4196899;28;20418;-60
2022/09/20 01:44:21;;;;;;;;;;;10.30;99.90;;;;;;4186118;28;20054;-60
2022/09/20 01:46:42;;;;;;;;;;;10.30;99.90;;;;;;4181498;28;19931;-59
2022/09/20 01:49:12;;;;;;;;;;;10.20;99.90;;;;;;4197105;28;20002;-60
2022/09/20 01:51:32;;;;;;;;;;;10.20;99.90;;;;;;4180687;28;19951;-60
2022/09/20 01:53:59;;;;;;;;;;;10.20;99.90;;;;;;4180345;28;20027;-60
2022/09/20 01:56:41;;;;;;;;;;;10.20;99.90;;;;;;4180324;28;20046;-59
2022/09/20 01:59:18;;;;;;;;;;;10.20;99.90;;;;;;4180153;28;19991;-60
2022/09/20 02:01:46;;;;;;;;;;;10.20;99.90;;;;;;4180164;28;19967;-60
2022/09/20 02:04:17;;;;;;;;;;;10.20;99.90;;;;;;4180347;28;19959;-59
2022/09/20 02:06:38;;;;;;;;;;;10.10;99.90;;;;;;4179992;28;19979;-60
2022/09/20 02:09:10;;;;;;;;;;;10.00;99.90;;;;;;4180188;28;20447;-60
2022/09/20 02:11:37;;;;;;;;;;;9.90;99.90;;;;;;4179908;28;19932;-59
2022/09/20 02:14:12;;;;;;;;;;;9.80;99.90;;;;;;4180210;28;19932;-59
2022/09/20 02:16:52;;;;;;;;;;;9.80;99.90;;;;;;4179645;28;19935;-60
2022/09/20 02:19:31;;;;;;;;;;;9.60;99.90;;;;;;4180194;28;19932;-60
2022/09/20 02:22:10;;;;;;;;;;;9.50;99.90;;;;;;4179947;28;19987;-60
2022/09/20 02:24:39;;;;;;;;;;;9.50;99.90;;;;;;4180199;28;19931;-60
2022/09/20 02:27:27;;;;;;;;;;;9.40;99.90;;;;;;4180063;28;19974;-60
2022/09/20 02:29:59;;;;;;;;;;;9.40;99.90;;;;;;4170050;28;19931;-60
2022/09/20 02:32:25;;;;;;;;;;;9.60;99.90;;;;;;4179783;28;19932;-59
2022/09/20 02:35:05;;;;;;;;;;;9.50;99.90;;;;;;4179936;28;19986;-60
2022/09/20 02:37:44;;;;;;;;;;;9.60;99.90;;;;;;4179364;28;19936;-59
2022/09/20 02:40:10;;;;;;;;;;;9.50;99.90;;;;;;4179587;28;19931;-60
2022/09/20 02:42:36;;;;;;;;;;;9.40;99.90;;;;;;4179950;28;20020;-60
2022/09/20 02:45:00;;;;;;;;;;;9.40;99.90;;;;;;4178873;28;19971;-60
2022/09/20 02:47:37;;;;;;;;;;;9.00;99.90;;;;;;4186157;28;19935;-60
2022/09/20 02:50:16;;;;;;;;;;;8.90;99.90;;;;;;4196088;28;20003;-60
2022/09/20 02:53:03;;;;;;;;;;;9.00;99.90;;;;;;4179649;28;19974;-60
2022/09/20 02:55:24;;;;;;;;;;;9.00;99.90;;;;;;4179457;28;19936;-60
2022/09/20 02:57:54;;;;;;;;;;;9.10;99.90;;;;;;4179411;28;20458;-62
2022/09/20 03:00:20;;;;;;;;;;;9.10;99.90;;;;;;4179498;28;20040;-62
2022/09/20 03:02:44;;;;;;;;;;;9.10;99.90;;;;;;4179656;28;20083;-62
2022/09/20 03:05:10;;;;;;;;;;;9.00;99.90;;;;;;4179694;28;19936;-62
2022/09/20 03:07:30;;;;;;;;;;;8.90;99.90;;;;;;4179070;28;19936;-62
2022/09/20 03:10:11;;;;;;;;;;;8.70;99.90;;;;;;4179349;28;19931;-62
2022/09/20 03:12:31;;;;;;;;;;;8.60;99.90;;;;;;4179193;28;19978;-62
2022/09/20 03:14:58;;;;;;;;;;;8.70;99.90;;;;;;4179768;28;19932;-61
2022/09/20 03:17:35;;;;;;;;;;;8.50;99.90;;;;;;4179141;28;20291;-62
2022/09/20 03:20:14;;;;;;;;;;;8.40;99.90;;;;;;4178990;28;19987;-62
2022/09/20 03:22:53;;;;;;;;;;;8.30;99.90;;;;;;4179541;28;19935;-62
2022/09/20 03:25:31;;;;;;;;;;;8.30;99.90;;;;;;4179157;28;19983;-62
2022/09/20 03:27:52;;;;;;;;;;;8.20;99.90;;;;;;4179000;28;20020;-62
2022/09/20 03:30:26;;;;;;;;;;;8.30;99.90;;;;;;4179511;28;20461;-62
2022/09/20 03:33:02;;;;;;;;;;;8.30;99.90;;;;;;4178810;28;20436;-62
2022/09/20 03:35:28;;;;;;;;;;;8.30;99.90;;;;;;4179068;28;19935;-62
2022/09/20 03:38:08;;;;;;;;;;;8.20;99.90;;;;;;4178637;28;19931;-62
2022/09/20 03:40:34;;;;;;;;;;;8.20;99.90;;;;;;4179316;28;19986;-62
2022/09/20 03:42:58;;;;;;;;;;;8.20;99.90;;;;;;4179024;28;19935;-62
2022/09/20 03:45:25;;;;;;;;;;;8.10;99.90;;;;;;4179170;28;19971;-62
2022/09/20 03:48:04;;;;;;;;;;;8.10;99.90;;;;;;4188870;28;19935;-62
2022/09/20 03:50:43;;;;;;;;;;;8.00;99.90;;;;;;4185929;28;19935;-62
2022/09/20 03:53:15;;;;;;;;;;;7.80;99.90;;;;;;4178646;28;19939;-62
2022/09/20 03:55:54;;;;;;;;;;;7.70;99.90;;;;;;4178940;28;19935;-61
2022/09/20 03:58:33;;;;;;;;;;;7.70;99.90;;;;;;4181641;28;19935;-62
2022/09/20 04:00:59;;;;;;;;;;;7.50;99.90;;;;;;4182543;28;19931;-62
2022/09/20 04:03:40;;;;;;;;;;;7.30;99.90;;;;;;4182109;28;19979;-60
2022/09/20 04:06:20;;;;;;;;;;;7.20;99.90;;;;;;4182278;28;20319;-62
2022/09/20 04:08:55;;;;;;;;;;;7.10;99.90;;;;;;4181799;28;20399;-62
2022/09/20 04:11:44;;;;;;;;;;;7.00;99.90;;;;;;4182282;28;20044;-61
2022/09/20 04:14:16;;;;;;;;;;;7.00;99.90;;;;;;4150346;28;20347;-62
2022/09/20 04:16:39;;;;;;;;;;;7.10;99.90;;;;;;4181818;28;19951;-60
2022/09/20 04:19:10;;;;;;;;;;;7.20;99.90;;;;;;4182472;28;19939;-61
2022/09/20 04:21:40;;;;;;;;;;;7.20;99.90;;;;;;4194551;28;19936;-61
2022/09/20 04:24:12;;;;;;;;;;;7.30;99.90;;;;;;4182172;28;20300;-62
2022/09/20 04:26:35;;;;;;;;;;;7.40;99.90;;;;;;4181524;28;20039;-62
2022/09/20 04:29:00;;;;;;;;;;;7.40;99.90;;;;;;4181829;28;19955;-61
2022/09/20 04:31:21;;;;;;;;;;;7.40;99.90;;;;;;4181831;28;19947;-62
2022/09/20 04:33:44;;;;;;;;;;;7.40;99.90;;;;;;4182204;28;20015;-61
2022/09/20 04:36:29;;;;;;;;;;;7.40;99.90;;;;;;4181499;28;19971;-61
2022/09/20 04:39:00;;;;;;;;;;;7.40;99.90;;;;;;4181877;28;19954;-62
2022/09/20 04:41:39;;;;;;;;;;;7.50;99.90;;;;;;4181170;28;19931;-61
2022/09/20 04:44:11;;;;;;;;;;;7.50;99.90;;;;;;4181812;28;19975;-61
2022/09/20 04:46:51;;;;;;;;;;;7.40;99.90;;;;;;4181205;28;20504;-61
2022/09/20 04:49:17;;;;;;;;;;;7.40;99.90;;;;;;4181382;28;19936;-60
2022/09/20 04:51:47;;;;;;;;;;;7.30;99.90;;;;;;4181447;28;20408;-62
2022/09/20 04:54:20;;;;;;;;;;;7.30;99.90;;;;;;4181546;28;19938;-61
2022/09/20 04:56:43;;;;;;;;;;;7.30;99.90;;;;;;4181257;28;19932;-61
2022/09/20 04:59:21;;;;;;;;;;;7.30;99.90;;;;;;4181452;28;19931;-62
2022/09/20 05:02:02;;;;;;;;;;;7.30;99.90;;;;;;4181316;28;20761;-62
2022/09/20 05:04:25;;;;;;;;;;;7.30;99.90;;;;;;4180846;28;20339;-61
2022/09/20 05:06:52;;;;;;;;;;;7.40;99.90;;;;;;4180812;28;19935;-62
2022/09/20 05:09:15;;;;;;;;;;;7.40;99.90;;;;;;4180134;28;19983;-62
2022/09/20 05:11:36;;;;;;;;;;;7.40;99.90;;;;;;4180907;28;19990;-61
2022/09/20 05:14:11;;;;;;;;;;;7.30;99.90;;;;;;4181118;28;19932;-61
2022/09/20 05:16:50;;;;;;;;;;;7.30;99.90;;;;;;4180728;28;19932;-59
2022/09/20 05:19:31;;;;;;;;;;;7.20;99.90;;;;;;4165112;28;19931;-59
2022/09/20 05:22:05;;;;;;;;;;;7.20;99.90;;;;;;4130658;28;20020;-59
2022/09/20 05:24:37;;;;;;;;;;;7.10;99.90;;;;;;4136875;28;19957;-57
2022/09/20 05:27:02;;;;;;;;;;;7.10;99.90;;;;;;4146015;28;19995;-59
2022/09/20 05:29:23;;;;;;;;;;;6.90;99.90;;;;;;4146158;28;20399;-59
2022/09/20 05:31:51;;;;;;;;;;;6.90;99.90;;;;;;4142493;28;19933;-59
2022/09/20 05:34:30;;;;;;;;;;;7.00;99.90;;;;;;4130045;28;19936;-58
2022/09/20 05:37:02;;;;;;;;;;;7.00;99.90;;;;;;4129648;28;20396;-58
2022/09/20 05:39:32;;;;;;;;;;;7.00;99.90;;;;;;4143943;28;19932;-58
2022/09/20 05:42:03;;;;;;;;;;;6.80;99.90;;;;;;4141836;28;19949;-57
2022/09/20 05:44:41;;;;;;;;;;;6.90;99.90;;;;;;4142284;28;19995;-59
2022/09/20 05:47:04;;;;;;;;;;;6.90;99.90;;;;;;4144948;28;19932;-58
2022/09/20 05:49:53;;;;;;;;;;;6.90;99.90;;;;;;4129421;28;19936;-59
2022/09/20 05:52:20;;;;;;;;;;;6.90;99.90;;;;;;4143947;28;20025;-59
2022/09/20 05:54:58;;;;;;;;;;;6.90;99.90;;;;;;4145937;28;20365;-59
2022/09/20 05:57:27;;;;;;;;;;;6.90;99.90;;;;;;4150659;28;19979;-58
2022/09/20 06:00:17;;;;;;;;;;;6.90;99.90;;;;;;4176748;28;20455;-59
2022/09/20 06:02:40;;;;;;;;;;;7.10;99.90;;;;;;4129263;28;19976;-58
2022/09/20 06:05:03;;;;;;;;;;;7.20;99.90;;;;;;4144293;28;19935;-59
2022/09/20 06:07:42;;;;;;;;;;;7.30;99.90;;;;;;4144927;28;20058;-58
2022/09/20 06:10:22;;;;;;;;;;;7.40;99.90;;;;;;4145439;28;19937;-59
2022/09/20 06:12:54;;;;;;;;;;;7.60;99.90;;;;;;4145434;28;20368;-58
2022/09/20 06:15:20;;;;;;;;;;;7.70;99.90;;;;;;4129448;28;19935;-59
2022/09/20 06:17:40;;;;;;;;;;;7.80;99.90;;;;;;4143107;28;19989;-59
2022/09/20 06:20:09;;;;;;;;;;;7.80;99.90;;;;;;4144285;28;20416;-59
2022/09/20 06:22:36;;;;;;;;;;;7.80;99.90;;;;;;4145175;28;20025;-59
2022/09/20 06:25:22;;;;;;;;;;;7.90;99.90;;;;;;4145487;28;19937;-58
2022/09/20 06:27:50;;;;;;;;;;;8.00;99.90;;;;;;4130709;28;20460;-59
2022/09/20 06:30:14;;;;;;;;;;;8.00;99.90;;;;;;4145089;28;19936;-58
2022/09/20 06:32:51;;;;;;;;;;;8.20;99.90;;;;;;4145221;28;19932;-59
2022/09/20 06:35:11;;;;;;;;;;;8.40;99.90;;;;;;4144904;28;20552;-59
2022/09/20 06:43:06;;;;;;;;;;;8.70;99.90;;;;;;4182853;28;19935;-58
2022/09/20 06:45:26;;;;;;;;;;;9.00;99.90;;;;;;4179485;28;19936;-58
2022/09/20 06:47:47;;;;;;;;;;;9.10;99.90;;;;;;4190382;28;19951;-58
2022/09/20 06:50:13;;;;;;;;;;;9.30;99.90;;;;;;4195954;28;19936;-58
2022/09/20 06:52:34;;;;;;;;;;;9.40;99.90;;;;;;4183019;28;19940;-59
2022/09/20 06:54:55;;;;;;;;;;;9.60;99.90;;;;;;4179924;28;19971;-57
2022/09/20 06:57:17;;;;;;;;;;;9.70;99.90;;;;;;4179937;28;19982;-58
2022/09/20 06:59:37;;;;;;;;;;;9.70;99.90;;;;;;4179432;28;20042;-59
2022/09/20 07:01:58;;;;;;;;;;;9.80;99.90;;;;;;4179476;28;20021;-59
2022/09/20 07:04:18;;;;;;;;;;;9.90;99.90;;;;;;4179291;28;19935;-59
2022/09/20 07:06:39;;;;;;;;;;;10.10;99.90;;;;;;4179269;28;19979;-59
2022/09/20 07:09:00;;;;;;;;;;;10.20;99.90;;;;;;4179263;28;19975;-59
2022/09/20 07:11:22;;;;;;;;;;;10.30;99.90;;;;;;4178965;28;19978;-60
2022/09/20 07:13:42;;;;;;;;;;;10.50;99.90;;;;;;4169599;28;19932;-60
2022/09/20 07:16:04;;;;;;;;;;;10.70;99.90;;;;;;4179238;28;19951;-59
2022/09/20 07:18:25;;;;;;;;;;;11.20;99.90;;;;;;4178958;28;20406;-60
2022/09/20 07:20:45;;;;;;;;;;;11.30;99.90;;;;;;4179352;28;19935;-60
2022/09/20 07:23:05;;;;;;;;;;;11.30;99.90;;;;;;4179063;28;19935;-59
2022/09/20 07:25:26;;;;;;;;;;;11.40;99.90;;;;;;4179457;28;20016;-59
2022/09/20 07:27:49;;;;;;;;;;;11.50;99.90;;;;;;4163821;28;19932;-58
2022/09/20 07:30:09;;;;;;;;;;;11.60;99.90;;;;;;4178878;28;20355;-60
2022/09/20 07:32:30;;;;;;;;;;;11.70;99.90;;;;;;4178980;28;19935;-60
2022/09/20 07:34:50;;;;;;;;;;;11.90;99.90;;;;;;4178877;28;19936;-58
2022/09/20 07:37:10;;;;;;;;;;;12.00;99.90;;;;;;4179545;28;19935;-60
2022/09/20 07:39:31;;;;;;;;;;;12.20;99.90;;;;;;4178740;28;19932;-60
2022/09/20 07:41:51;;;;;;;;;;;12.30;99.90;;;;;;4179093;28;19932;-60
2022/09/20 07:44:23;;;;;;;;;;;12.80;99.90;;;;;;4178955;28;19936;-60
2022/09/20 07:46:45;;;;;;;;;;;12.80;99.90;;;;;;4180651;28;19951;-60
2022/09/20 07:49:05;;;;;;;;;;;12.90;99.90;;;;;;4189560;28;19979;-60
2022/09/20 07:51:26;;;;;;;;;;;13.10;99.90;;;;;;4179221;28;19931;-60
2022/09/20 07:53:46;;;;;;;;;;;13.10;99.90;;;;;;4178749;28;19978;-60
2022/09/20 07:56:10;;;;;;;;;;;13.30;99.90;;;;;;4178577;28;19983;-59
2022/09/20 07:58:32;;;;;;;;;;;13.40;99.90;;;;;;4178677;28;19970;-60
2022/09/20 08:00:54;;;;;;;;;;;13.60;99.90;;;;;;4179122;28;20036;-60
2022/09/20 08:03:14;;;;;;;;;;;13.80;99.90;;;;;;4179204;28;20020;-60
2022/09/20 08:05:34;;;;;;;;;;;14.00;99.90;;;;;;4179169;28;19935;-60
2022/09/20 08:07:55;;;;;;;;;;;14.30;99.90;;;;;;4178657;28;19975;-60
2022/09/20 08:10:15;;;;;;;;;;;14.40;99.90;;;;;;4178776;28;19931;-59
2022/09/20 08:12:36;;;;;;;;;;;14.60;99.90;;;;;;4178688;28;19986;-60
2022/09/20 08:15:16;;;;;;;;;;;15.20;99.90;;;;;;4178962;28;20003;-60
2022/09/20 08:17:36;;;;;;;;;;;15.20;99.90;;;;;;4178228;28;20029;-60
2022/09/20 08:19:57;;;;;;;;;;;15.20;99.90;;;;;;4178502;28;19936;-60
2022/09/20 08:22:17;;;;;;;;;;;15.40;99.90;;;;;;4178396;28;19935;-61
2022/09/20 08:24:38;;;;;;;;;;;15.70;99.90;;;;;;4178579;28;19974;-61
2022/09/20 08:26:58;;;;;;;;;;;15.70;99.90;;;;;;4178490;28;19935;-60
2022/09/20 08:29:18;;;;;;;;;;;15.70;99.90;;;;;;4178615;28;20417;-60
2022/09/20 08:31:41;;;;;;;;;;;15.90;99.90;;;;;;4178549;28;19936;-61
2022/09/20 08:34:03;;;;;;;;;;;16.10;99.90;;;;;;4187300;28;19939;-60
2022/09/20 08:36:24;;;;;;;;;;;16.40;99.90;;;;;;4178368;28;19931;-61
2022/09/20 08:38:45;;;;;;;;;;;16.70;99.90;;;;;;4178472;28;19931;-60
2022/09/20 08:41:29;;;;;;;;;;;16.90;99.90;;;;;;4178816;28;19932;-58
2022/09/20 08:43:50;;;;;;;;;;;17.10;99.90;;;;;;4180428;28;19978;-58
2022/09/20 08:46:13;;;;;;;;;;;17.30;99.90;;;;;;4191715;28;19935;-57
2022/09/20 08:48:34;;;;;;;;;;;17.50;99.90;;;;;;4181455;28;19974;-58
2022/09/20 08:50:54;;;;;;;;;;;17.60;99.90;;;;;;4181249;28;19931;-58
2022/09/20 08:53:15;;;;;;;;;;;17.80;99.90;;;;;;4181500;28;19978;-57
2022/09/20 08:55:42;;;;;;;;;;;18.00;99.90;;;;;;4181564;28;19975;-57
2022/09/20 08:58:02;;;;;;;;;;;18.20;99.90;;;;;;4181266;28;19986;-57
2022/09/20 09:00:30;;;;;;;;;;;18.40;99.90;;;;;;4181322;28;19936;-57
2022/09/20 09:02:53;;;;;;;;;;;18.80;99.90;;;;;;4181465;28;19932;-58
2022/09/20 09:05:31;;;;;;;;;;;18.80;99.90;;;;;;4181070;28;20383;-58
2022/09/20 09:07:51;;;;;;;;;;;18.90;99.90;;;;;;4181500;28;19986;-58
2022/09/20 09:10:11;;;;;;;;;;;18.90;99.90;;;;;;4181185;28;19931;-57
2022/09/20 09:12:33;;;;;;;;;;;19.00;99.90;;;;;;4181341;28;19961;-57
2022/09/20 09:14:58;;;;;;;;;;;19.20;99.90;;;;;;4181196;28;19963;-57
2022/09/20 09:17:20;;;;;;;;;;;19.40;99.90;;;;;;4181150;28;20348;-58
2022/09/20 09:19:50;;;;;;;;;;;19.80;99.90;;;;;;4180821;28;20462;-57
2022/09/20 09:22:10;;;;;;;;;;;20.00;99.90;;;;;;4181274;28;19931;-57
2022/09/20 09:24:31;;;;;;;;;;;20.30;99.90;;;;;;4180705;28;20025;-57
2022/09/20 09:27:04;;;;;;;;;;;20.20;99.90;;;;;;4180835;28;19932;-57
2022/09/20 09:29:24;;;;;;;;;;;20.30;99.90;;;;;;4192065;28;19934;-57
2022/09/20 09:31:46;;;;;;;;;;;20.20;99.90;;;;;;4187150;28;19935;-57
2022/09/20 09:34:27;;;;;;;;;;;20.50;99.90;;;;;;4180899;28;20020;-56
2022/09/20 09:36:47;;;;;;;;;;;20.70;99.90;;;;;;4180965;28;19968;-57
2022/09/20 09:39:26;;;;;;;;;;;21.10;99.90;;;;;;4180786;28;20426;-57
2022/09/20 09:41:46;;;;;;;;;;;21.00;99.30;;;;;;4180320;28;19935;-57
2022/09/20 09:44:18;;;;;;;;;;;21.20;99.90;;;;;;4180570;28;20024;-57
2022/09/20 09:46:39;;;;;;;;;;;21.10;98.70;;;;;;4181744;28;20047;-57
2022/09/20 09:49:12;;;;;;;;;;;21.30;99.30;;;;;;4197179;28;19932;-57
2022/09/20 09:51:33;;;;;;;;;;;21.40;97.30;;;;;;4181109;28;19970;-57
2022/09/20 09:53:54;;;;;;;;;;;21.60;97.40;;;;;;4180811;28;19983;-57
2022/09/20 09:56:23;;;;;;;;;;;21.80;97.90;;;;;;4180642;28;19978;-57
2022/09/20 09:58:53;;;;;;;;;;;22.30;97.80;;;;;;4180275;28;19983;-58
2022/09/20 10:01:49;;;;;;;;;;;22.10;96.30;;;;;;4180547;28;19935;-57
2022/09/20 10:04:28;;;;;;;;;;;22.30;96.60;;;;;;4130651;28;20325;-56
2022/09/20 10:06:56;;;;;;;;;;;22.50;98.50;;;;;;4180565;28;20060;-56
2022/09/20 10:09:16;;;;;;;;;;;22.70;96.10;;;;;;4180079;28;19978;-57
2022/09/20 10:12:03;;;;;;;;;;;22.80;96.10;;;;;;4180577;28;20025;-57
2022/09/20 10:14:42;;;;;;;;;;;23.10;95.70;;;;;;4180068;28;19982;-57
2022/09/20 10:17:21;;;;;;;;;;;23.10;92.00;;;;;;4180061;28;20276;-57
2022/09/20 10:20:04;;;;;;;;;;;23.10;93.10;;;;;;4179767;28;20412;-57
2022/09/20 10:22:40;;;;;;;;;;;23.10;93.10;;;;;;4180039;28;19979;-58
2022/09/20 10:25:05;;;;;;;;;;;23.10;93.40;;;;;;4183067;28;20394;-57
2022/09/20 10:27:43;;;;;;;;;;;23.40;93.00;;;;;;4180062;28;19931;-56
2022/09/20 10:30:09;;;;;;;;;;;23.70;93.80;;;;;;4192192;28;19935;-58
2022/09/20 10:32:30;;;;;;;;;;;23.60;93.20;;;;;;4196834;28;19939;-57
2022/09/20 10:35:03;;;;;;;;;;;23.70;93.60;;;;;;4191105;28;19947;-58
2022/09/20 10:37:44;;;;;;;;;;;23.70;91.60;;;;;;4180024;28;19932;-56
2022/09/20 10:43:13;;;;;;;;;;;23.70;91.20;;;;;;4181556;28;19935;-57
2022/09/20 10:43:19;;;;;;;;;;;23.50;87.30;;;;;;4166428;28;20033;-57
2022/09/20 10:45:52;;;;;;;;;;;23.40;90.70;;;;;;4179969;28;19939;-57
2022/09/20 10:48:47;;;;;;;;;;;23.80;90.40;;;;;;4183811;28;19932;-57
2022/09/20 10:51:09;;;;;;;;;;;24.10;90.70;;;;;;4179542;28;19935;-57
2022/09/20 10:53:37;;;;;;;;;;;24.20;88.30;;;;;;4179662;28;20374;-57
2022/09/20 10:56:02;;;;;;;;;;;23.90;90.30;;;;;;4179641;28;20357;-57
2022/09/20 10:58:31;;;;;;;;;;;24.30;91.00;;;;;;4185732;28;20391;-57
2022/09/20 11:01:10;;;;;;;;;;;24.80;86.80;;;;;;4180033;28;20295;-56
2022/09/20 11:03:40;;;;;;;;;;;24.70;85.20;;;;;;4191296;28;19932;-57
2022/09/20 11:06:06;;;;;;;;;;;24.50;85.90;;;;;;4179030;28;19936;-57
2022/09/20 11:08:29;;;;;;;;;;;24.40;86.00;;;;;;4167318;28;20025;-57
2022/09/20 11:10:51;;;;;;;;;;;24.30;86.80;;;;;;4179699;28;19943;-57
2022/09/20 11:13:33;;;;;;;;;;;24.70;85.80;;;;;;4179133;28;19983;-57
2022/09/20 11:16:04;;;;;;;;;;;24.90;89.00;;;;;;4179138;28;19971;-56
2022/09/20 11:18:30;;;;;;;;;;;24.70;81.40;;;;;;4181488;28;20410;-57
2022/09/20 11:21:02;;;;;;;;;;;24.90;89.20;;;;;;4186403;28;19931;-56
2022/09/20 11:23:43;;;;;;;;;;;24.90;83.40;;;;;;4169954;28;19932;-58
2022/09/20 11:26:10;;;;;;;;;;;24.90;85.80;;;;;;4182994;28;20373;-57
2022/09/20 11:28:39;;;;;;;;;;;25.40;87.90;;;;;;4179275;28;19962;-57
2022/09/20 11:31:02;;;;;;;;;;;25.30;83.60;;;;;;4179192;28;19979;-57
2022/09/20 11:33:28;;;;;;;;;;;25.20;80.80;;;;;;4181811;28;20030;-57
2022/09/20 11:35:54;;;;;;;;;;;24.70;78.20;;;;;;4179191;28;19935;-57
2022/09/20 11:38:23;;;;;;;;;;;24.80;83.90;;;;;;4179078;28;20415;-57
2022/09/20 11:40:52;;;;;;;;;;;25.40;84.30;;;;;;4186198;28;19999;-57
2022/09/20 11:43:13;;;;;;;;;;;25.60;81.10;;;;;;4179361;28;19979;-57
2022/09/20 11:45:36;;;;;;;;;;;25.80;79.50;;;;;;4178794;28;19998;-57
2022/09/20 11:47:59;;;;;;;;;;;25.50;80.20;;;;;;4188117;28;19931;-56
2022/09/20 11:50:23;;;;;;;;;;;25.60;79.60;;;;;;4178798;28;19935;-58
2022/09/20 11:53:02;;;;;;;;;;;25.40;79.50;;;;;;4178598;28;20453;-56
2022/09/20 11:55:22;;;;;;;;;;;25.30;77.60;;;;;;4178635;28;19975;-57
2022/09/20 11:57:42;;;;;;;;;;;25.70;77.30;;;;;;4178709;28;19932;-57
2022/09/20 12:00:06;;;;;;;;;;;25.60;77.60;;;;;;4179188;28;19979;-57
2022/09/20 12:02:32;;;;;;;;;;;25.80;77.10;;;;;;4183329;28;19930;-57
2022/09/20 12:04:54;;;;;;;;;;;25.40;75.50;;;;;;4187890;28;20403;-57
2022/09/20 12:07:17;;;;;;;;;;;25.50;81.10;;;;;;4191094;28;19971;-57
2022/09/20 12:09:39;;;;;;;;;;;25.60;76.50;;;;;;4185066;28;20016;-56
2022/09/20 12:12:13;;;;;;;;;;;26.10;77.50;;;;;;4190776;28;19939;-57
2022/09/20 12:14:33;;;;;;;;;;;25.80;75.80;;;;;;4190378;28;19966;-56
2022/09/20 12:16:55;;;;;;;;;;;26.00;74.00;;;;;;4183899;28;20013;-58
2022/09/20 12:19:35;;;;;;;;;;;26.20;76.50;;;;;;4198353;28;20323;-57
2022/09/20 12:21:58;;;;;;;;;;;25.90;73.10;;;;;;4182006;28;20480;-57
2022/09/20 12:24:20;;;;;;;;;;;26.00;70.60;;;;;;4182306;28;19990;-56
2022/09/20 12:26:42;;;;;;;;;;;25.70;71.50;;;;;;4169343;28;20452;-57
2022/09/20 12:29:26;;;;;;;;;;;25.60;70.40;;;;;;4191701;28;19931;-57
2022/09/20 12:31:48;;;;;;;;;;;25.50;72.00;;;;;;4167593;28;19931;-58
2022/09/20 12:34:12;;;;;;;;;;;25.10;69.50;;;;;;4181039;28;19935;-57
2022/09/20 12:36:35;;;;;;;;;;;25.40;71.30;;;;;;4181419;28;19971;-57
2022/09/20 12:39:01;;;;;;;;;;;25.60;70.50;;;;;;4181788;28;19973;-57
2022/09/20 12:41:22;;;;;;;;;;;25.80;66.70;;;;;;4166389;28;20018;-58
2022/09/20 12:43:50;;;;;;;;;;;25.60;67.70;;;;;;4181522;28;19931;-57
2022/09/20 12:46:19;;;;;;;;;;;26.10;68.50;;;;;;4185367;28;19955;-57
2022/09/20 12:48:40;;;;;;;;;;;26.10;69.90;;;;;;4183357;28;19936;-57
2022/09/20 12:53:41;;;;;;;;;;;25.90;72.70;;;;;;4188045;28;20419;-57
2022/09/20 12:56:01;;;;;;;;;;;26.00;71.10;;;;;;4191885;28;19982;-57
2022/09/20 12:58:25;;;;;;;;;;;26.10;70.90;;;;;;4193557;28;19932;-57
2022/09/20 13:00:45;;;;;;;;;;;26.10;69.70;;;;;;4180948;28;19936;-57
2022/09/20 13:03:26;;;;;;;;;;;25.70;71.30;;;;;;4181181;28;19932;-57
2022/09/20 13:05:47;;;;;;;;;;;25.60;70.10;;;;;;4181257;28;19931;-58
2022/09/20 13:08:15;;;;;;;;;;;26.00;69.20;;;;;;4181053;28;19936;-57
2022/09/20 13:10:36;;;;;;;;;;;25.60;70.50;;;;;;4197770;28;19939;-57
2022/09/20 13:13:02;;;;;;;;;;;25.80;71.10;;;;;;4181505;28;20439;-57
2022/09/20 13:15:23;;;;;;;;;;;26.00;66.60;;;;;;4181354;28;19932;-57
2022/09/20 13:17:44;;;;;;;;;;;26.00;66.60;;;;;;4181115;28;19991;-57
2022/09/20 13:20:06;;;;;;;;;;;25.70;67.90;;;;;;4181274;28;19931;-57
2022/09/20 13:22:30;;;;;;;;;;;25.90;69.90;;;;;;4180743;28;19979;-57
2022/09/20 13:24:58;;;;;;;;;;;25.70;69.00;;;;;;4181080;28;19975;-57
2022/09/20 13:27:29;;;;;;;;;;;25.60;68.70;;;;;;4180793;28;19936;-57
2022/09/20 13:29:49;;;;;;;;;;;25.50;69.30;;;;;;4180238;28;19982;-57
2022/09/20 13:32:22;;;;;;;;;;;25.20;69.60;;;;;;4180741;28;20303;-57
2022/09/20 13:34:42;;;;;;;;;;;25.10;69.10;;;;;;4180885;28;20403;-57
2022/09/20 13:37:03;;;;;;;;;;;25.50;72.20;;;;;;4180743;28;20009;-57
2022/09/20 13:39:35;;;;;;;;;;;25.60;69.80;;;;;;4180656;28;19974;-57
2022/09/20 13:42:07;;;;;;;;;;;25.50;69.50;;;;;;4180862;28;19943;-57
2022/09/20 13:44:32;;;;;;;;;;;25.20;68.00;;;;;;4180680;28;20012;-57
2022/09/20 13:46:52;;;;;;;;;;;25.20;71.60;;;;;;4183317;28;20437;-57
2022/09/20 13:49:16;;;;;;;;;;;25.00;70.20;;;;;;4197044;28;19935;-57
2022/09/20 13:51:36;;;;;;;;;;;25.00;71.70;;;;;;4197272;28;20399;-57
2022/09/20 13:54:16;;;;;;;;;;;25.00;72.70;;;;;;4197096;28;19950;-57
2022/09/20 13:56:38;;;;;;;;;;;25.30;75.70;;;;;;4197193;28;19931;-58
2022/09/20 13:59:03;;;;;;;;;;;25.30;69.90;;;;;;4196986;28;20019;-57
2022/09/20 14:01:23;;;;;;;;;;;25.30;69.40;;;;;;4196999;28;20016;-57
2022/09/20 14:03:43;;;;;;;;;;;25.20;71.30;;;;;;4197165;28;20481;-57
2022/09/20 14:06:11;;;;;;;;;;;25.10;72.50;;;;;;4197132;28;20451;-57
2022/09/20 14:08:42;;;;;;;;;;;25.00;71.00;;;;;;4197054;28;19978;-57
2022/09/20 14:11:04;;;;;;;;;;;25.10;70.70;;;;;;4196673;28;20363;-57
2022/09/20 14:13:25;;;;;;;;;;;25.40;70.80;;;;;;4196801;28;20292;-57
2022/09/20 14:15:46;;;;;;;;;;;25.20;70.90;;;;;;4197056;28;20481;-57
2022/09/20 14:18:10;;;;;;;;;;;24.80;69.20;;;;;;4196977;28;19931;-57
2022/09/20 14:20:31;;;;;;;;;;;24.50;69.90;;;;;;4196432;28;19931;-57
2022/09/20 14:22:51;;;;;;;;;;;24.40;70.90;;;;;;4196461;28;20354;-58
2022/09/20 14:25:26;;;;;;;;;;;24.40;70.90;;;;;;4196881;28;19936;-57
2022/09/20 14:27:46;;;;;;;;;;;24.30;72.30;;;;;;4181484;28;20035;-57
2022/09/20 14:30:27;;;;;;;;;;;24.60;73.30;;;;;;4196859;28;19934;-57
2022/09/20 14:32:52;;;;;;;;;;;24.90;73.70;;;;;;4196629;28;19931;-57